createdAt,value
2018-08-21T00:01:19.743Z,17.71
2018-08-21T00:04:22.789Z,17.81
2018-08-21T00:05:54.359Z,17.77
2018-08-21T00:07:26.033Z,17.66
2018-08-21T00:08:57.504Z,17.59
2018-08-21T00:10:29.118Z,17.48
2018-08-21T00:12:00.647Z,17.41
2018-08-21T00:13:32.469Z,17.31
2018-08-21T00:15:03.790Z,17.28
2018-08-21T00:16:35.365Z,17.19
2018-08-21T00:18:07.056Z,17.15
2018-08-21T00:19:38.609Z,17.03
2018-08-21T00:21:10.078Z,17.07
2018-08-21T00:22:41.649Z,17.04
2018-08-21T00:24:13.221Z,17.01
2018-08-21T00:25:44.893Z,17.01
2018-08-21T00:27:16.369Z,17.04
2018-08-21T00:28:47.937Z,17.00
2018-08-21T00:30:19.754Z,16.97
2018-08-21T00:31:51.330Z,16.85
2018-08-21T00:33:22.651Z,16.82
2018-08-21T00:34:54.223Z,16.85
2018-08-21T00:36:25.795Z,16.88
2018-08-21T00:37:57.467Z,16.83
2018-08-21T00:39:29.008Z,16.89
2018-08-21T00:41:00.509Z,17.03
2018-08-21T00:42:32.082Z,17.00
2018-08-21T00:44:03.753Z,17.08
2018-08-21T00:45:35.223Z,17.21
2018-08-21T00:47:06.796Z,17.19
2018-08-21T00:48:38.369Z,17.23
2018-08-21T00:50:10.239Z,17.23
2018-08-21T00:51:41.727Z,17.21
2018-08-21T00:53:13.101Z,17.34
2018-08-21T00:54:44.654Z,17.37
2018-08-21T00:56:16.495Z,17.33
2018-08-21T00:57:47.794Z,17.25
2018-08-21T00:59:19.365Z,17.01
2018-08-21T01:03:54.666Z,16.52
2018-08-21T01:05:25.653Z,16.45
2018-08-21T01:06:57.224Z,16.56
2018-08-21T01:08:28.803Z,16.64
2018-08-21T01:10:00.615Z,16.63
2018-08-21T01:11:31.937Z,16.70
2018-08-21T01:13:03.513Z,16.63
2018-08-21T01:14:35.130Z,16.71
2018-08-21T01:16:06.750Z,16.82
2018-08-21T01:17:38.222Z,16.61
2018-08-21T01:19:09.793Z,16.57
2018-08-21T01:20:41.364Z,16.35
2018-08-21T01:22:13.038Z,16.15
2018-08-21T01:23:44.507Z,16.20
2018-08-21T01:25:16.079Z,16.17
2018-08-21T01:26:47.648Z,16.27
2018-08-21T01:28:19.419Z,16.30
2018-08-21T01:29:50.790Z,16.21
2018-08-21T01:31:22.361Z,16.14
2018-08-21T01:32:53.932Z,16.27
2018-08-21T01:34:25.604Z,16.41
2018-08-21T01:35:57.075Z,16.42
2018-08-21T01:37:28.646Z,16.49
2018-08-21T01:39:00.222Z,16.52
2018-08-21T01:40:31.887Z,16.49
2018-08-21T01:42:03.360Z,16.58
2018-08-21T01:43:34.930Z,16.67
2018-08-21T01:45:06.500Z,16.66
2018-08-21T01:46:38.321Z,16.78
2018-08-21T01:48:09.645Z,16.79
2018-08-21T01:49:41.213Z,16.79
2018-08-21T01:51:12.785Z,16.61
2018-08-21T01:52:44.462Z,16.58
2018-08-21T01:54:15.935Z,16.60
2018-08-21T01:55:47.497Z,16.50
2018-08-21T01:57:19.069Z,16.53
2018-08-21T01:58:50.942Z,16.49
2018-08-21T02:00:22.210Z,16.43
2018-08-21T02:01:53.784Z,16.60
2018-08-21T02:03:25.353Z,16.46
2018-08-21T02:04:57.327Z,16.43
2018-08-21T02:06:28.495Z,16.28
2018-08-21T02:08:00.066Z,16.28
2018-08-21T02:09:31.640Z,16.12
2018-08-21T02:11:03.362Z,16.14
2018-08-21T02:12:34.780Z,16.21
2018-08-21T02:14:06.352Z,16.21
2018-08-21T02:15:37.924Z,16.23
2018-08-21T02:17:09.595Z,16.20
2018-08-21T02:18:41.064Z,16.27
2018-08-21T02:20:12.655Z,16.20
2018-08-21T02:21:44.208Z,16.14
2018-08-21T02:23:15.978Z,16.20
2018-08-21T02:24:47.349Z,16.28
2018-08-21T02:26:18.924Z,16.38
2018-08-21T02:27:50.494Z,16.42
2018-08-21T02:29:22.224Z,16.41
2018-08-21T02:30:53.638Z,16.39
2018-08-21T02:32:25.205Z,16.38
2018-08-21T02:33:56.787Z,16.46
2018-08-21T02:35:28.446Z,16.35
2018-08-21T02:36:59.917Z,16.15
2018-08-21T02:38:31.491Z,15.94
2018-08-21T02:40:03.059Z,15.80
2018-08-21T02:41:35.081Z,15.64
2018-08-21T02:43:06.203Z,15.62
2018-08-21T02:44:37.771Z,15.65
2018-08-21T02:46:09.342Z,15.78
2018-08-21T02:47:41.219Z,15.68
2018-08-21T02:49:12.487Z,15.68
2018-08-21T02:50:44.104Z,15.60
2018-08-21T02:52:15.625Z,15.49
2018-08-21T02:53:47.296Z,15.51
2018-08-21T02:55:18.771Z,15.50
2018-08-21T02:56:50.874Z,15.54
2018-08-21T02:58:21.910Z,15.38
2018-08-21T02:59:53.728Z,15.27
2018-08-21T03:01:25.048Z,15.47
2018-08-21T03:02:56.620Z,15.59
2018-08-21T03:04:28.189Z,15.50
2018-08-21T03:05:59.859Z,15.50
2018-08-21T03:07:31.329Z,15.65
2018-08-21T03:09:02.900Z,15.62
2018-08-21T03:10:34.470Z,15.53
2018-08-21T03:12:06.141Z,15.46
2018-08-21T03:13:37.610Z,15.39
2018-08-21T03:15:09.181Z,15.32
2018-08-21T03:16:40.751Z,15.31
2018-08-21T03:18:12.571Z,15.19
2018-08-21T03:19:43.891Z,15.07
2018-08-21T03:21:15.462Z,15.13
2018-08-21T03:22:47.036Z,14.99
2018-08-21T03:24:18.705Z,15.11
2018-08-21T03:25:50.172Z,14.99
2018-08-21T03:27:21.743Z,15.06
2018-08-21T03:28:53.314Z,15.11
2018-08-21T03:30:24.982Z,15.17
2018-08-21T03:31:56.459Z,15.14
2018-08-21T03:33:28.021Z,15.07
2018-08-21T03:34:59.592Z,15.07
2018-08-21T03:36:31.412Z,15.01
2018-08-21T03:38:02.732Z,15.20
2018-08-21T03:39:34.304Z,15.19
2018-08-21T03:41:05.868Z,15.31
2018-08-21T03:42:37.441Z,15.16
2018-08-21T03:44:09.015Z,15.13
2018-08-21T03:45:40.582Z,14.98
2018-08-21T03:47:12.152Z,14.94
2018-08-21T03:48:43.971Z,14.95
2018-08-21T03:50:15.301Z,14.94
2018-08-21T03:51:46.861Z,14.86
2018-08-21T03:53:18.458Z,14.73
2018-08-21T03:54:50.101Z,14.77
2018-08-21T03:56:21.570Z,14.83
2018-08-21T03:57:53.155Z,14.70
2018-08-21T03:59:24.710Z,14.73
2018-08-21T04:00:56.279Z,14.68
2018-08-21T04:02:27.853Z,14.62
2018-08-21T04:03:59.428Z,14.64
2018-08-21T04:05:30.988Z,14.65
2018-08-21T04:07:02.559Z,14.68
2018-08-21T04:08:34.128Z,14.68
2018-08-21T04:10:05.823Z,14.65
2018-08-21T04:11:37.280Z,14.64
2018-08-21T04:13:09.288Z,14.55
2018-08-21T04:14:40.408Z,14.57
2018-08-21T04:16:11.979Z,14.58
2018-08-21T04:17:43.547Z,14.54
2018-08-21T04:19:15.367Z,14.58
2018-08-21T04:20:46.687Z,14.43
2018-08-21T04:22:18.256Z,14.35
2018-08-21T04:23:49.825Z,14.33
2018-08-21T04:25:21.495Z,14.20
2018-08-21T04:28:24.735Z,14.29
2018-08-21T04:29:56.105Z,14.36
2018-08-21T04:31:27.924Z,14.25
2018-08-21T04:32:59.246Z,14.39
2018-08-21T04:34:30.814Z,14.40
2018-08-21T04:36:02.383Z,14.33
2018-08-21T04:37:33.951Z,14.29
2018-08-21T04:39:05.523Z,14.33
2018-08-21T04:40:37.091Z,14.24
2018-08-21T04:42:08.661Z,14.32
2018-08-21T04:43:40.331Z,14.40
2018-08-21T04:45:11.804Z,14.46
2018-08-21T04:46:43.368Z,14.60
2018-08-21T04:48:14.941Z,14.52
2018-08-21T04:49:46.858Z,14.47
2018-08-21T04:51:18.077Z,14.40
2018-08-21T04:52:49.646Z,14.39
2018-08-21T04:54:21.215Z,14.64
2018-08-21T04:55:52.887Z,14.83
2018-08-21T04:57:24.353Z,15.07
2018-08-21T04:58:55.926Z,15.11
2018-08-21T05:00:27.493Z,15.09
2018-08-21T05:01:59.264Z,14.94
2018-08-21T05:03:30.631Z,14.73
2018-08-21T05:05:02.205Z,14.55
2018-08-21T05:06:33.770Z,14.47
2018-08-21T05:08:05.590Z,14.37
2018-08-21T05:09:36.908Z,14.36
2018-08-21T05:11:08.478Z,14.36
2018-08-21T05:12:40.146Z,14.35
2018-08-21T05:14:11.615Z,14.36
2018-08-21T05:15:43.185Z,14.29
2018-08-21T05:17:14.755Z,14.36
2018-08-21T05:18:46.324Z,14.33
2018-08-21T05:20:17.993Z,14.37
2018-08-21T05:21:49.466Z,14.20
2018-08-21T05:23:21.031Z,14.15
2018-08-21T05:24:52.601Z,14.09
2018-08-21T05:26:24.270Z,14.06
2018-08-21T05:27:55.740Z,14.17
2018-08-21T05:29:27.308Z,14.20
2018-08-21T05:30:58.879Z,14.27
2018-08-21T05:32:30.447Z,14.20
2018-08-21T05:34:02.020Z,14.17
2018-08-21T05:35:33.585Z,14.06
2018-08-21T05:37:05.158Z,14.07
2018-08-21T05:38:36.724Z,13.97
2018-08-21T05:40:08.293Z,13.96
2018-08-21T05:41:39.862Z,13.99
2018-08-21T05:43:11.432Z,13.92
2018-08-21T05:44:43.102Z,13.92
2018-08-21T05:46:14.571Z,13.87
2018-08-21T05:47:46.140Z,13.88
2018-08-21T05:49:17.709Z,13.82
2018-08-21T05:50:49.579Z,13.82
2018-08-21T05:52:20.847Z,13.95
2018-08-21T05:53:52.418Z,14.03
2018-08-21T05:55:24.061Z,13.96
2018-08-21T05:56:55.656Z,13.95
2018-08-21T05:58:27.125Z,13.92
2018-08-21T05:59:58.693Z,13.82
2018-08-21T06:01:30.263Z,13.82
2018-08-21T06:03:01.934Z,13.85
2018-08-21T06:04:33.401Z,13.84
2018-08-21T06:06:04.970Z,13.84
2018-08-21T06:07:36.540Z,13.69
2018-08-21T06:09:08.111Z,13.63
2018-08-21T06:10:39.678Z,13.60
2018-08-21T06:12:11.248Z,13.63
2018-08-21T06:13:43.019Z,13.64
2018-08-21T06:15:14.386Z,14.09
2018-08-21T06:16:45.954Z,14.37
2018-08-21T06:18:17.545Z,14.21
2018-08-21T06:19:49.093Z,14.10
2018-08-21T06:21:21.062Z,14.18
2018-08-21T06:22:52.231Z,14.07
2018-08-21T06:24:23.805Z,13.91
2018-08-21T06:25:55.370Z,13.84
2018-08-21T06:27:27.039Z,13.67
2018-08-21T06:28:58.508Z,13.71
2018-08-21T06:30:30.077Z,13.69
2018-08-21T06:32:01.657Z,13.97
2018-08-21T06:33:33.214Z,13.97
2018-08-21T06:35:04.786Z,14.07
2018-08-21T06:36:36.363Z,14.21
2018-08-21T06:38:07.927Z,14.17
2018-08-21T06:39:39.625Z,13.96
2018-08-21T06:41:11.059Z,13.88
2018-08-21T06:42:42.629Z,13.84
2018-08-21T06:44:14.202Z,13.81
2018-08-21T06:45:45.765Z,13.70
2018-08-21T06:47:17.338Z,13.62
2018-08-21T06:48:48.903Z,13.73
2018-08-21T06:50:20.472Z,13.84
2018-08-21T06:51:52.291Z,13.82
2018-08-21T06:53:23.610Z,13.75
2018-08-21T06:54:55.180Z,13.78
2018-08-21T06:56:26.747Z,13.71
2018-08-21T06:57:58.468Z,13.60
2018-08-21T06:59:29.886Z,13.60
2018-08-21T07:01:01.456Z,13.62
2018-08-21T07:02:33.023Z,13.91
2018-08-21T07:04:04.592Z,14.10
2018-08-21T07:05:36.162Z,13.99
2018-08-21T07:07:07.730Z,13.84
2018-08-21T07:08:39.301Z,13.66
2018-08-21T07:10:10.868Z,13.70
2018-08-21T07:11:42.437Z,13.63
2018-08-21T07:13:14.007Z,13.66
2018-08-21T07:14:45.575Z,13.69
2018-08-21T07:16:17.394Z,13.79
2018-08-21T07:17:48.712Z,13.71
2018-08-21T07:19:20.284Z,13.60
2018-08-21T07:20:51.854Z,13.62
2018-08-21T07:22:23.550Z,13.52
2018-08-21T07:23:54.992Z,13.54
2018-08-21T07:25:26.557Z,13.55
2018-08-21T07:26:58.125Z,13.57
2018-08-21T07:28:29.700Z,13.48
2018-08-21T07:30:01.265Z,13.52
2018-08-21T07:31:32.832Z,13.54
2018-08-21T07:33:04.401Z,13.55
2018-08-21T07:34:36.070Z,13.57
2018-08-21T07:36:07.539Z,13.51
2018-08-21T07:37:39.109Z,13.45
2018-08-21T07:39:10.677Z,13.49
2018-08-21T07:40:42.250Z,13.48
2018-08-21T07:42:13.816Z,13.49
2018-08-21T07:43:45.386Z,13.36
2018-08-21T07:45:16.952Z,13.23
2018-08-21T07:46:48.620Z,13.20
2018-08-21T07:48:20.090Z,13.36
2018-08-21T07:49:51.658Z,13.89
2018-08-21T07:51:23.227Z,14.12
2018-08-21T07:52:55.146Z,14.24
2018-08-21T07:54:26.365Z,14.15
2018-08-21T07:55:57.933Z,14.00
2018-08-21T07:57:29.502Z,13.73
2018-08-21T07:59:01.074Z,13.66
2018-08-21T08:00:32.639Z,13.52
2018-08-21T08:02:04.213Z,13.46
2018-08-21T08:03:35.780Z,13.49
2018-08-21T08:05:07.364Z,13.49
2018-08-21T08:06:38.917Z,13.75
2018-08-21T08:08:10.498Z,13.87
2018-08-21T08:09:42.255Z,13.64
2018-08-21T08:11:13.720Z,13.62
2018-08-21T08:12:45.188Z,14.96
2018-08-21T08:14:16.761Z,15.47
2018-08-21T08:15:48.325Z,15.94
2018-08-21T08:17:20.077Z,16.05
2018-08-21T08:18:51.464Z,15.94
2018-08-21T08:20:23.049Z,15.47
2018-08-21T08:21:54.610Z,15.11
2018-08-21T08:23:26.489Z,14.77
2018-08-21T08:24:57.769Z,14.42
2018-08-21T08:26:29.309Z,14.20
2018-08-21T08:28:00.875Z,14.18
2018-08-21T08:29:32.594Z,15.19
2018-08-21T08:31:04.013Z,15.57
2018-08-21T08:32:35.585Z,15.65
2018-08-21T08:34:07.159Z,15.59
2018-08-21T08:35:38.720Z,16.02
2018-08-21T08:37:10.289Z,16.01
2018-08-21T08:38:41.858Z,16.20
2018-08-21T08:40:13.483Z,15.65
2018-08-21T08:41:45.111Z,15.84
2018-08-21T08:43:16.565Z,15.50
2018-08-21T08:44:48.134Z,15.43
2018-08-21T08:46:19.704Z,14.98
2018-08-21T08:47:51.535Z,15.43
2018-08-21T08:49:22.845Z,15.51
2018-08-21T08:50:54.411Z,15.83
2018-08-21T08:52:25.980Z,15.67
2018-08-21T08:53:57.802Z,15.60
2018-08-21T08:55:29.118Z,16.34
2018-08-21T08:57:00.687Z,16.01
2018-08-21T08:58:32.260Z,15.82
2018-08-21T09:00:03.827Z,15.75
2018-08-21T09:01:35.396Z,16.57
2018-08-21T09:03:06.965Z,16.63
2018-08-21T09:04:38.534Z,16.60
2018-08-21T09:06:10.253Z,16.48
2018-08-21T09:07:41.978Z,16.25
2018-08-21T09:09:13.247Z,16.08
2018-08-21T09:10:44.811Z,16.31
2018-08-21T09:12:16.380Z,16.96
2018-08-21T09:13:47.950Z,17.30
2018-08-21T09:15:19.561Z,17.54
2018-08-21T09:16:51.099Z,17.37
2018-08-21T09:18:22.711Z,17.15
2018-08-21T09:19:54.230Z,17.22
2018-08-21T09:21:25.797Z,17.49
2018-08-21T09:22:57.385Z,17.23
2018-08-21T09:24:29.041Z,17.14
2018-08-21T09:26:00.507Z,17.26
2018-08-21T09:27:32.089Z,17.21
2018-08-21T09:29:03.649Z,16.82
2018-08-21T09:30:35.216Z,16.83
2018-08-21T09:32:06.788Z,16.82
2018-08-21T09:33:38.355Z,17.19
2018-08-21T09:35:09.931Z,16.98
2018-08-21T09:36:41.539Z,17.34
2018-08-21T09:38:13.164Z,17.38
2018-08-21T09:39:44.714Z,17.55
2018-08-21T09:41:16.255Z,17.28
2018-08-21T09:42:48.880Z,17.19
2018-08-21T09:44:19.859Z,17.30
2018-08-21T09:45:50.938Z,17.28
2018-08-21T09:47:22.535Z,17.01
2018-08-21T09:48:54.109Z,16.76
2018-08-21T09:50:25.662Z,17.06
2018-08-21T09:51:57.224Z,16.96
2018-08-21T09:53:29.098Z,17.15
2018-08-21T09:55:00.749Z,17.18
2018-08-21T09:56:32.163Z,17.56
2018-08-21T09:58:03.532Z,17.93
2018-08-21T09:59:35.178Z,17.97
2018-08-21T10:01:07.114Z,18.02
2018-08-21T10:02:38.737Z,18.21
2018-08-21T10:04:09.892Z,18.55
2018-08-21T10:05:41.663Z,18.66
2018-08-21T10:07:13.392Z,18.84
2018-08-21T10:08:44.684Z,19.10
2018-08-21T10:10:16.472Z,19.26
2018-08-21T10:11:48.027Z,19.14
2018-08-21T10:13:19.499Z,19.11
2018-08-21T10:14:51.156Z,18.63
2018-08-21T10:16:22.397Z,18.62
2018-08-21T10:17:54.073Z,18.55
2018-08-21T10:19:26.189Z,18.55
2018-08-21T10:20:57.815Z,18.95
2018-08-21T10:22:29.069Z,19.13
2018-08-21T10:24:00.274Z,19.14
2018-08-21T10:25:32.236Z,19.13
2018-08-21T10:27:03.710Z,18.85
2018-08-21T10:28:35.411Z,18.88
2018-08-21T10:30:06.550Z,18.55
2018-08-21T10:33:10.485Z,18.47
2018-08-21T10:34:42.224Z,18.37
2018-08-21T10:36:12.900Z,18.41
2018-08-21T10:37:44.875Z,18.51
2018-08-21T10:40:48.014Z,18.45
2018-08-21T10:42:19.857Z,18.39
2018-08-21T10:43:50.795Z,18.41
2018-08-21T10:45:23.055Z,18.29
2018-08-21T10:46:55.379Z,18.17
2018-08-21T10:48:26.615Z,18.15
2018-08-21T10:49:57.859Z,18.21
2018-08-21T10:51:29.398Z,18.21
2018-08-21T10:53:00.570Z,18.23
2018-08-21T10:54:31.853Z,18.18
2018-08-21T10:56:05.284Z,18.20
2018-08-21T10:57:35.682Z,18.12
2018-08-21T10:59:07.837Z,18.25
2018-08-21T11:00:38.988Z,18.33
2018-08-21T11:02:10.255Z,18.57
2018-08-21T11:03:41.653Z,19.36
2018-08-21T11:05:13.177Z,20.06
2018-08-21T11:06:44.685Z,20.66
2018-08-21T11:08:16.155Z,21.12
2018-08-21T11:09:47.414Z,20.57
2018-08-21T11:11:19.389Z,20.73
2018-08-21T11:12:50.912Z,21.03
2018-08-21T11:14:22.964Z,21.03
2018-08-21T11:15:54.639Z,21.17
2018-08-21T11:17:27.200Z,21.16
2018-08-21T11:18:57.932Z,21.29
2018-08-21T11:20:31.417Z,20.87
2018-08-21T11:22:02.379Z,21.37
2018-08-21T11:23:32.810Z,21.59
2018-08-21T11:25:04.455Z,21.47
2018-08-21T11:26:35.660Z,21.77
2018-08-21T11:28:06.951Z,21.09
2018-08-21T11:29:39.855Z,21.22
2018-08-21T11:31:09.906Z,21.35
2018-08-21T11:32:42.357Z,21.27
2018-08-21T11:34:13.466Z,21.25
2018-08-21T11:35:45.687Z,21.75
2018-08-21T11:37:16.862Z,22.45
2018-08-21T11:38:48.014Z,21.37
2018-08-21T11:40:20.673Z,21.46
2018-08-21T11:41:50.692Z,21.47
2018-08-21T11:43:22.142Z,22.76
2018-08-21T11:46:25.865Z,22.61
2018-08-21T11:47:57.677Z,22.28
2018-08-21T11:49:29.247Z,22.72
2018-08-21T11:51:00.248Z,21.84
2018-08-21T11:52:31.887Z,22.58
2018-08-21T11:54:04.995Z,22.40
2018-08-21T11:55:35.689Z,22.14
2018-08-21T11:57:08.968Z,22.21
2018-08-21T11:58:40.279Z,21.96
2018-08-21T12:00:11.485Z,22.46
2018-08-21T12:01:41.081Z,22.91
2018-08-21T12:03:13.548Z,23.00
2018-08-21T12:04:44.802Z,22.77
2018-08-21T12:06:19.859Z,23.39
2018-08-21T12:07:48.076Z,22.94
2018-08-21T12:09:20.499Z,22.91
2018-08-21T12:10:51.600Z,23.20
2018-08-21T12:12:23.883Z,24.32
2018-08-21T12:13:54.921Z,23.83
2018-08-21T12:15:27.364Z,22.58
2018-08-21T12:16:58.245Z,22.17
2018-08-21T12:18:32.448Z,22.33
2018-08-21T12:20:01.498Z,23.25
2018-08-21T12:21:32.957Z,22.60
2018-08-21T12:23:04.003Z,23.20
2018-08-21T12:24:35.971Z,23.27
2018-08-21T12:26:08.763Z,22.67
2018-08-21T12:29:11.779Z,23.15
2018-08-21T12:30:42.999Z,23.68
2018-08-21T12:32:13.799Z,23.22
2018-08-21T12:35:18.657Z,23.68
2018-08-21T12:36:49.729Z,24.06
2018-08-21T12:38:20.578Z,24.65
2018-08-21T12:39:52.259Z,23.25
2018-08-21T12:41:24.383Z,22.79
2018-08-21T12:42:56.360Z,23.39
2018-08-21T12:44:27.100Z,23.25
2018-08-21T12:45:58.033Z,24.27
2018-08-21T12:47:30.300Z,24.27
2018-08-21T12:49:03.017Z,23.61
2018-08-21T12:50:34.921Z,23.98
2018-08-21T12:52:04.848Z,23.47
2018-08-21T12:53:37.538Z,24.30
2018-08-21T12:55:08.338Z,25.14
2018-08-21T12:56:39.250Z,23.70
2018-08-21T12:58:12.596Z,23.79
2018-08-21T12:59:42.825Z,24.34
2018-08-21T13:01:14.839Z,25.03
2018-08-21T13:02:46.627Z,25.88
2018-08-21T13:04:17.181Z,26.21
2018-08-21T13:05:48.793Z,25.25
2018-08-21T13:07:20.261Z,24.65
2018-08-21T13:08:50.768Z,24.02
2018-08-21T13:10:22.205Z,24.10
2018-08-21T13:11:54.182Z,24.76
2018-08-21T13:13:25.520Z,24.69
2018-08-21T13:14:58.269Z,25.14
2018-08-21T13:16:29.211Z,24.78
2018-08-21T13:18:00.675Z,24.58
2018-08-21T13:19:32.687Z,25.61
2018-08-21T13:21:06.381Z,26.25
2018-08-21T13:22:35.077Z,24.84
2018-08-21T13:24:08.372Z,25.21
2018-08-21T13:25:40.798Z,25.32
2018-08-21T13:27:10.285Z,25.47
2018-08-21T13:28:42.629Z,25.72
2018-08-21T13:30:13.704Z,25.54
2018-08-21T13:31:45.653Z,24.60
2018-08-21T13:33:17.109Z,24.99
2018-08-21T13:34:48.218Z,25.27
2018-08-21T13:36:20.435Z,25.51
2018-08-21T13:37:52.412Z,25.00
2018-08-21T13:39:23.227Z,24.80
2018-08-21T13:40:54.428Z,24.85
2018-08-21T13:42:26.145Z,25.57
2018-08-21T13:43:57.741Z,25.52
2018-08-21T13:45:29.770Z,24.99
2018-08-21T13:47:03.380Z,25.67
2018-08-21T13:48:36.059Z,26.40
2018-08-21T13:50:04.813Z,26.54
2018-08-21T13:51:36.845Z,26.07
2018-08-21T13:53:07.923Z,25.87
2018-08-21T13:54:39.816Z,26.25
2018-08-21T13:56:11.237Z,26.23
2018-08-21T13:57:42.575Z,26.23
2018-08-21T13:59:13.333Z,26.51
2018-08-21T14:00:46.324Z,26.63
2018-08-21T14:02:17.978Z,26.36
2018-08-21T14:03:49.508Z,26.28
2018-08-21T14:05:20.607Z,26.65
2018-08-21T14:06:50.923Z,25.92
2018-08-21T14:08:22.955Z,26.37
2018-08-21T14:09:57.673Z,26.40
2018-08-21T14:11:26.013Z,26.55
2018-08-21T14:12:59.053Z,27.12
2018-08-21T14:14:29.673Z,27.12
2018-08-21T14:16:00.904Z,26.95
2018-08-21T14:17:33.147Z,26.88
2018-08-21T14:19:04.486Z,27.66
2018-08-21T14:20:37.362Z,28.18
2018-08-21T14:22:06.738Z,26.73
2018-08-21T14:23:38.950Z,26.09
2018-08-21T14:25:10.207Z,26.21
2018-08-21T14:26:42.618Z,27.09
2018-08-21T14:28:13.315Z,27.43
2018-08-21T14:29:45.583Z,27.06
2018-08-21T14:31:16.640Z,27.03
2018-08-21T14:32:48.087Z,27.81
2018-08-21T14:34:20.134Z,27.82
2018-08-21T14:35:51.811Z,27.75
2018-08-21T14:37:23.549Z,28.36
2018-08-21T14:38:54.982Z,29.00
2018-08-21T14:40:26.598Z,28.14
2018-08-21T14:41:58.950Z,28.56
2018-08-21T14:43:31.010Z,28.44
2018-08-21T14:45:02.975Z,27.96
2018-08-21T14:46:32.976Z,27.77
2018-08-21T14:48:05.003Z,27.49
2018-08-21T14:49:36.544Z,28.06
2018-08-21T14:51:07.046Z,27.72
2018-08-21T14:52:41.352Z,27.82
2018-08-21T14:54:11.585Z,28.48
2018-08-21T14:55:43.187Z,27.43
2018-08-21T14:57:14.390Z,27.40
2018-08-21T14:58:46.300Z,27.87
2018-08-21T15:00:16.811Z,29.16
2018-08-21T15:01:49.575Z,29.74
2018-08-21T15:03:21.139Z,29.68
2018-08-21T15:04:54.356Z,29.63
2018-08-21T15:06:24.967Z,29.71
2018-08-21T15:07:56.365Z,28.78
2018-08-21T15:10:58.979Z,28.80
2018-08-21T15:12:29.867Z,28.55
2018-08-21T15:14:01.225Z,28.74
2018-08-21T15:15:34.373Z,28.36
2018-08-21T15:17:04.744Z,28.51
2018-08-21T15:20:06.912Z,28.86
2018-08-21T15:21:40.451Z,28.74
2018-08-21T15:23:10.835Z,28.30
2018-08-21T15:24:41.714Z,28.96
2018-08-21T15:26:13.309Z,29.09
2018-08-21T15:27:46.092Z,29.21
2018-08-21T15:29:18.788Z,29.52
2018-08-21T15:30:50.772Z,29.89
2018-08-21T15:32:20.627Z,29.65
2018-08-21T15:33:52.586Z,29.76
2018-08-21T15:35:24.149Z,30.54
2018-08-21T15:36:56.005Z,30.83
2018-08-21T15:38:28.190Z,30.97
2018-08-21T15:39:59.003Z,30.61
2018-08-21T15:41:30.492Z,30.42
2018-08-21T15:43:02.469Z,30.31
2018-08-21T15:44:34.101Z,30.51
2018-08-21T15:46:04.984Z,30.57
2018-08-21T15:47:36.610Z,29.02
2018-08-21T15:49:08.470Z,29.02
2018-08-21T15:50:40.111Z,29.55
2018-08-21T15:52:10.922Z,30.65
2018-08-21T15:53:44.120Z,32.15
2018-08-21T15:55:15.010Z,31.58
2018-08-21T15:56:46.516Z,31.75
2018-08-21T15:58:20.506Z,31.76
2018-08-21T15:59:48.985Z,31.07
2018-08-21T16:01:20.238Z,30.57
2018-08-21T16:02:52.959Z,29.37
2018-08-21T16:05:55.406Z,31.68
2018-08-21T16:07:27.710Z,31.34
2018-08-21T16:08:59.178Z,30.60
2018-08-21T16:10:31.577Z,28.83
2018-08-21T16:12:03.156Z,29.14
2018-08-21T16:13:33.925Z,29.12
2018-08-21T16:15:05.345Z,29.45
2018-08-21T16:16:37.463Z,30.20
2018-08-21T16:18:08.415Z,30.01
2018-08-21T16:19:39.687Z,30.76
2018-08-21T16:22:42.997Z,32.21
2018-08-21T16:24:14.587Z,31.86
2018-08-21T16:25:45.683Z,32.63
2018-08-21T16:27:17.889Z,33.38
2018-08-21T16:28:50.833Z,33.15
2018-08-21T16:30:21.085Z,33.42
2018-08-21T16:31:52.487Z,32.72
2018-08-21T16:33:24.015Z,32.45
2018-08-21T16:34:56.807Z,32.92
2018-08-21T16:36:27.326Z,33.01
2018-08-21T16:37:59.040Z,31.34
2018-08-21T16:39:30.276Z,31.53
2018-08-21T16:41:02.359Z,30.23
2018-08-21T16:42:34.898Z,29.80
2018-08-21T16:44:06.704Z,29.71
2018-08-21T16:48:42.281Z,29.55
2018-08-21T16:50:13.038Z,30.23
2018-08-21T16:51:43.083Z,30.10
2018-08-21T16:53:16.788Z,30.16
2018-08-21T16:54:48.051Z,29.68
2018-08-21T16:56:20.248Z,29.98
2018-08-21T16:57:49.435Z,29.02
2018-08-21T16:59:21.419Z,28.22
2018-08-21T17:00:54.082Z,27.75
2018-08-21T17:02:24.732Z,27.06
2018-08-21T17:03:56.605Z,26.48
2018-08-21T17:05:28.849Z,26.09
2018-08-21T17:06:59.152Z,26.09
2018-08-21T17:08:30.962Z,26.63
2018-08-21T17:10:02.007Z,27.22
2018-08-21T17:11:33.793Z,27.28
2018-08-21T17:13:06.376Z,26.18
2018-08-21T17:14:38.415Z,25.47
2018-08-21T17:16:09.973Z,26.12
2018-08-21T17:17:40.575Z,25.73
2018-08-21T17:19:11.501Z,25.98
2018-08-21T17:20:44.021Z,26.01
2018-08-21T17:22:15.566Z,25.18
2018-08-21T17:23:46.402Z,25.10
2018-08-21T17:25:18.536Z,23.97
2018-08-21T17:26:51.535Z,24.24
2018-08-21T17:28:22.376Z,23.95
2018-08-21T17:29:52.904Z,23.61
2018-08-21T17:31:24.835Z,25.02
2018-08-21T17:32:59.564Z,23.75
2018-08-21T17:34:31.486Z,24.64
2018-08-21T17:36:00.336Z,24.42
2018-08-21T17:37:31.432Z,24.83
2018-08-21T17:39:02.418Z,25.33
2018-08-21T17:40:32.861Z,24.93
2018-08-21T17:42:04.524Z,24.69
2018-08-21T17:43:36.802Z,24.13
2018-08-21T17:45:08.218Z,25.00
2018-08-21T17:46:39.284Z,25.21
2018-08-21T17:48:10.760Z,25.46
2018-08-21T17:51:14.030Z,24.58
2018-08-21T17:52:45.882Z,23.22
2018-08-21T17:54:17.093Z,23.00
2018-08-21T17:55:48.978Z,22.88
2018-08-21T17:57:20.319Z,21.90
2018-08-21T18:00:23.943Z,21.06
2018-08-21T18:01:55.129Z,21.09
2018-08-21T18:03:27.139Z,20.51
2018-08-21T18:06:29.747Z,20.17
2018-08-21T18:08:01.393Z,20.35
2018-08-21T18:09:33.081Z,20.55
2018-08-21T18:11:04.688Z,19.91
2018-08-21T18:12:36.793Z,19.71
2018-08-21T18:14:07.670Z,19.84
2018-08-21T18:15:39.322Z,20.05
2018-08-21T18:17:10.815Z,19.92
2018-08-21T18:18:42.609Z,19.96
2018-08-21T18:20:14.260Z,19.80
2018-08-21T18:21:45.842Z,19.94
2018-08-21T18:23:17.140Z,19.87
2018-08-21T18:24:49.276Z,19.92
2018-08-21T18:26:20.267Z,19.87
2018-08-21T18:27:52.458Z,20.14
2018-08-21T18:29:23.673Z,19.80
2018-08-21T18:30:55.537Z,19.68
2018-08-21T18:32:26.576Z,19.66
2018-08-21T18:33:58.456Z,19.46
2018-08-21T18:37:01.420Z,19.48
2018-08-21T18:38:32.881Z,19.11
2018-08-21T18:40:04.558Z,18.82
2018-08-21T18:41:36.627Z,18.47
2018-08-21T18:43:07.626Z,18.41
2018-08-21T18:44:39.226Z,17.96
2018-08-21T18:47:42.486Z,18.30
2018-08-21T18:50:45.489Z,18.48
2018-08-21T18:52:17.262Z,18.72
2018-08-21T18:53:48.785Z,18.69
2018-08-21T18:55:20.412Z,18.90
2018-08-21T18:56:51.784Z,18.88
2018-08-21T18:58:23.719Z,18.75
2018-08-21T18:59:55.032Z,18.72
2018-08-21T19:01:26.506Z,18.84
2018-08-21T19:02:58.293Z,19.29
2018-08-21T19:04:29.657Z,18.91
2018-08-21T19:06:01.331Z,18.78
2018-08-21T19:07:32.809Z,18.72
2018-08-21T19:09:04.938Z,18.33
2018-08-21T19:12:07.983Z,18.51
2018-08-21T19:13:39.204Z,18.66
2018-08-21T19:15:10.882Z,18.94
2018-08-21T19:16:42.254Z,19.28
2018-08-21T19:18:13.959Z,19.25
2018-08-21T19:19:45.929Z,18.94
2018-08-21T19:21:16.988Z,18.55
2018-08-21T19:24:20.244Z,18.25
2018-08-21T19:25:51.704Z,18.17
2018-08-21T19:27:23.280Z,18.33
2018-08-21T19:28:55.490Z,18.25
2018-08-21T19:30:26.682Z,18.07
2018-08-21T19:31:59.075Z,17.81
2018-08-21T19:33:29.626Z,18.00
2018-08-21T19:35:01.458Z,18.25
2018-08-21T19:36:32.823Z,17.97
2018-08-21T19:38:04.297Z,17.92
2018-08-21T19:39:36.072Z,17.90
2018-08-21T19:41:07.444Z,17.96
2018-08-21T19:42:39.118Z,17.96
2018-08-21T19:44:10.591Z,17.90
2018-08-21T19:45:42.371Z,17.92
2018-08-21T19:48:45.515Z,17.81
2018-08-21T19:50:16.893Z,17.93
2018-08-21T19:51:49.397Z,17.81
2018-08-21T19:53:20.028Z,17.78
2018-08-21T19:54:52.236Z,17.71
2018-08-21T19:56:23.174Z,17.62
2018-08-21T19:57:54.746Z,17.70
2018-08-21T19:59:26.318Z,17.54
2018-08-21T20:00:58.045Z,17.56
2018-08-21T20:02:29.474Z,17.51
2018-08-21T20:05:32.608Z,17.59
2018-08-21T20:07:04.432Z,17.72
2018-08-21T20:08:35.755Z,17.72
2018-08-21T20:10:07.862Z,17.79
2018-08-21T20:11:38.918Z,17.78
2018-08-21T20:13:10.619Z,17.68
2018-08-21T20:14:42.042Z,17.49
2018-08-21T20:16:13.615Z,17.59
2018-08-21T20:17:45.220Z,17.68